Russell Township, Ohio
Current Conditions -  °F | °C
As of 4:45 PM on Thursday 20 Nov 2014 (Local Time) from KCGF Reporting Station
Overcast Overcast  
Wind Chill: 17°   Ceiling: 4500
Heat Index: 28°   Visibility: 7mi
Dew Point: 14°   Wind: 16mph
Humidity: 55%   Direction: 250°WSW
Pressure: 30.01"   Gusts: 29mph
Location:  41.4688°N, 81.3252°W
Report Text: KCGF 202145Z 25014G25KT 7SM SCT025 OVC045 M02/M10 A3001
Loading
Personal Weather Stations






























Interactive Weather Map New forecast layout! Learn more

10-Day Weather Forecast

Advertisements
Track Severe Weather on mobile